createdAt,value
2022-09-29T16:46:22.868Z,15.03
2022-09-29T16:48:50.615Z,18.17
2022-09-29T16:51:38.212Z,11.13
2022-09-29T16:54:06.324Z,13.53
2022-09-29T16:56:35.468Z,10.93
2022-09-29T16:59:11.423Z,10.87
2022-09-29T17:01:41.332Z,13.77
2022-09-29T17:04:09.961Z,15.37
2022-09-29T17:06:37.640Z,24.37
2022-09-29T17:09:05.635Z,21.40
2022-09-29T17:11:33.071Z,22.43
2022-09-29T17:14:00.112Z,22.03
2022-09-29T17:16:28.650Z,22.67
2022-09-29T17:18:57.495Z,25.57
2022-09-29T17:21:24.642Z,31.90
2022-09-29T17:23:52.073Z,33.27
2022-09-29T17:26:42.181Z,37.93
2022-09-29T17:29:09.432Z,61.57
2022-09-29T17:31:36.494Z,81.67
2022-09-29T17:34:07.871Z,92.60
2022-09-29T17:36:36.966Z,88.53
2022-09-29T17:39:04.635Z,128.30
2022-09-29T17:41:32.148Z,115.10
2022-09-29T17:43:59.307Z,136.87
2022-09-29T17:46:26.427Z,127.67
2022-09-29T17:48:53.418Z,125.80
2022-09-29T17:51:20.806Z,115.77
2022-09-29T17:53:47.881Z,112.13
2022-09-29T17:56:25.846Z,96.93
2022-09-29T17:58:54.065Z,60.70
2022-09-29T18:01:24.352Z,85.60
2022-09-29T18:03:52.531Z,123.30
2022-09-29T18:06:22.357Z,113.93
2022-09-29T18:08:53.725Z,99.77
2022-09-29T18:11:23.723Z,92.07
2022-09-29T18:13:51.168Z,117.43
2022-09-29T18:16:21.335Z,115.33
2022-09-29T18:18:49.138Z,122.70
2022-09-29T18:21:19.630Z,104.57
2022-09-29T18:23:47.137Z,124.27
2022-09-29T18:26:14.971Z,119.20
2022-09-29T18:28:44.135Z,123.50
2022-09-29T18:31:29.122Z,126.77
2022-09-29T18:33:57.363Z,126.30
2022-09-29T18:36:24.341Z,124.23
2022-09-29T18:38:51.307Z,71.77
2022-09-29T18:41:20.259Z,42.40
2022-09-29T18:43:48.178Z,58.60
2022-09-29T18:46:16.647Z,77.33
2022-09-29T18:48:44.509Z,178.80
2022-09-29T18:51:13.702Z,152.80
2022-09-29T18:53:44.353Z,51.87
2022-09-29T18:56:19.121Z,57.20
2022-09-29T18:58:46.110Z,116.80
2022-09-29T19:01:18.539Z,77.30
2022-09-29T19:03:45.753Z,66.67
2022-09-29T19:06:16.053Z,75.43
2022-09-29T19:08:44.493Z,86.17
2022-09-29T19:11:18.406Z,78.93
2022-09-29T19:13:46.251Z,79.43
2022-09-29T19:16:13.452Z,68.20
2022-09-29T19:18:40.587Z,69.27
2022-09-29T19:21:12.218Z,74.97
2022-09-29T19:23:46.796Z,68.70
2022-09-29T19:26:18.542Z,62.33
2022-09-29T19:28:47.598Z,87.30
2022-09-29T19:31:19.464Z,77.20
2022-09-29T19:33:48.119Z,73.83
2022-09-29T19:36:19.902Z,63.00
2022-09-29T19:38:47.306Z,58.77
2022-09-29T19:41:17.617Z,67.47
2022-09-29T19:43:45.820Z,76.13
2022-09-29T19:46:14.556Z,71.27
2022-09-29T19:48:43.405Z,64.60
2022-09-29T19:51:33.461Z,52.90
2022-09-29T19:54:13.662Z,65.77
2022-09-29T19:56:44.424Z,54.10
2022-09-29T19:59:14.079Z,52.80
2022-09-29T20:01:42.668Z,62.37
2022-09-29T20:04:11.743Z,55.20
2022-09-29T20:06:39.903Z,57.93
2022-09-29T20:09:07.771Z,39.43
2022-09-29T20:11:37.073Z,36.10
2022-09-29T20:14:06.153Z,37.60
2022-09-29T20:16:36.663Z,49.90
2022-09-29T20:19:08.434Z,59.00
2022-09-29T20:21:40.394Z,52.43
2022-09-29T20:24:07.451Z,53.80
2022-09-29T20:26:34.623Z,44.43
2022-09-29T20:29:03.100Z,50.33
2022-09-29T20:31:31.320Z,46.60
2022-09-29T20:33:59.518Z,47.43
2022-09-29T20:36:26.792Z,55.93
2022-09-29T20:38:53.904Z,59.03
2022-09-29T20:41:20.793Z,55.43
2022-09-29T20:43:54.505Z,48.97
2022-09-29T20:46:27.224Z,52.87
2022-09-29T20:48:56.847Z,56.07
2022-09-29T20:51:25.315Z,56.60
2022-09-29T20:53:57.748Z,48.00
2022-09-29T20:56:32.730Z,69.47
2022-09-29T20:59:00.306Z,77.77
2022-09-29T21:01:32.421Z,82.80
2022-09-29T21:04:05.580Z,79.43
2022-09-29T21:06:35.997Z,123.53
2022-09-29T21:09:05.809Z,131.27
2022-09-29T21:11:38.332Z,115.10
2022-09-29T21:14:18.861Z,132.53
2022-09-29T21:16:51.591Z,151.27
2022-09-29T21:19:23.994Z,137.60
2022-09-29T21:21:52.083Z,133.93
2022-09-29T21:24:19.115Z,115.77
2022-09-29T21:26:46.697Z,142.67
2022-09-29T21:29:17.584Z,120.83
2022-09-29T21:31:45.573Z,121.53
2022-09-29T21:34:14.591Z,120.03
2022-09-29T21:36:42.534Z,104.43
2022-09-29T21:39:10.786Z,111.60
2022-09-29T21:41:41.239Z,105.80
2022-09-29T21:44:13.204Z,95.17
2022-09-29T21:46:41.439Z,82.90
2022-09-29T21:49:09.902Z,67.80
2022-09-29T21:51:40.496Z,64.77
2022-09-29T21:54:12.375Z,66.33
2022-09-29T21:56:41.904Z,75.87
2022-09-29T21:59:10.297Z,58.40
2022-09-29T22:01:40.490Z,53.93
2022-09-29T22:04:08.628Z,49.30
2022-09-29T22:06:37.550Z,51.20
2022-09-29T22:09:06.971Z,43.33
2022-09-29T22:11:38.194Z,39.07
2022-09-29T22:14:06.274Z,40.50
2022-09-29T22:16:35.789Z,41.90
2022-09-29T22:19:22.555Z,44.67
2022-09-29T22:21:50.281Z,42.30
2022-09-29T22:24:17.409Z,57.50
2022-09-29T22:26:44.343Z,50.50
2022-09-29T22:29:11.473Z,48.50
2022-09-29T22:31:40.436Z,48.80
2022-09-29T22:34:08.305Z,66.03
2022-09-29T22:36:36.024Z,63.10
2022-09-29T22:39:05.715Z,82.30
2022-09-29T22:41:33.210Z,83.87
2022-09-29T22:44:00.891Z,114.97
2022-09-29T22:46:30.511Z,127.23
2022-09-29T22:48:58.606Z,103.87
2022-09-29T22:51:25.881Z,112.73
2022-09-29T22:53:53.071Z,83.83
2022-09-29T22:56:28.234Z,90.60
2022-09-29T22:58:59.968Z,85.50
2022-09-29T23:01:27.236Z,85.20
2022-09-29T23:03:54.632Z,66.07
2022-09-29T23:06:21.894Z,74.23
2022-09-29T23:08:49.163Z,51.17
2022-09-29T23:11:18.722Z,51.00
2022-09-29T23:13:46.601Z,43.67
2022-09-29T23:16:15.182Z,65.93
2022-09-29T23:18:45.669Z,68.17
2022-09-29T23:21:15.251Z,61.00
2022-09-29T23:23:42.219Z,54.03
2022-09-29T23:26:09.590Z,45.37
2022-09-29T23:28:37.465Z,46.20
2022-09-29T23:31:08.098Z,46.33
2022-09-29T23:33:35.452Z,39.30
2022-09-29T23:36:16.031Z,43.47
2022-09-29T23:39:02.851Z,40.90
2022-09-29T23:41:31.276Z,37.93
2022-09-29T23:44:00.814Z,42.33
2022-09-29T23:46:31.816Z,30.97
2022-09-29T23:49:00.378Z,46.67
2022-09-29T23:51:33.841Z,38.53
2022-09-29T23:54:00.992Z,35.47
2022-09-29T23:56:28.956Z,35.73
2022-09-29T23:58:56.346Z,48.63
